createdAt,value
2018-01-14T00:00:20.416Z,14.00
2018-01-14T00:01:25.944Z,13.20
2018-01-14T00:02:31.470Z,13.90
2018-01-14T00:03:37.001Z,13.70
2018-01-14T00:04:42.526Z,16.30
2018-01-14T00:05:48.062Z,15.10
2018-01-14T00:06:53.583Z,16.50
2018-01-14T00:07:59.110Z,16.20
2018-01-14T00:09:04.640Z,14.50
2018-01-14T00:10:10.162Z,12.90
2018-01-14T00:11:15.689Z,13.70
2018-01-14T00:12:21.222Z,14.50
2018-01-14T00:13:26.740Z,12.90
2018-01-14T00:14:32.276Z,13.00
2018-01-14T00:15:37.796Z,14.20
2018-01-14T00:16:43.331Z,12.70
2018-01-14T00:17:48.854Z,11.80
2018-01-14T00:18:54.383Z,15.20
2018-01-14T00:19:59.907Z,15.40
2018-01-14T00:21:05.437Z,15.10
2018-01-14T00:22:10.967Z,12.50
2018-01-14T00:23:16.493Z,13.50
2018-01-14T00:24:22.021Z,12.30
2018-01-14T00:25:27.550Z,14.00
2018-01-14T00:26:33.077Z,15.10
2018-01-14T00:27:38.624Z,12.90
2018-01-14T00:28:44.146Z,15.40
2018-01-14T00:29:49.655Z,13.20
2018-01-14T00:30:55.182Z,13.40
2018-01-14T00:32:00.708Z,14.20
2018-01-14T00:33:06.236Z,14.40
2018-01-14T00:34:11.766Z,14.70
2018-01-14T00:35:17.294Z,15.10
2018-01-14T00:36:22.827Z,15.60
2018-01-14T00:37:28.352Z,13.30
2018-01-14T00:38:33.912Z,13.20
2018-01-14T00:39:39.404Z,13.80
2018-01-14T00:40:44.932Z,13.90
2018-01-14T00:41:50.459Z,13.80
2018-01-14T00:42:55.987Z,16.80
2018-01-14T00:44:01.516Z,17.20
2018-01-14T00:45:07.041Z,14.30
2018-01-14T00:46:12.571Z,15.50
2018-01-14T00:47:18.098Z,14.90
2018-01-14T00:48:23.627Z,13.50
2018-01-14T00:49:29.162Z,15.30
2018-01-14T00:50:34.686Z,16.00
2018-01-14T00:51:40.208Z,13.70
2018-01-14T00:52:45.733Z,13.20
2018-01-14T00:53:51.261Z,14.50
2018-01-14T00:54:56.794Z,15.60
2018-01-14T00:56:02.316Z,14.40
2018-01-14T00:57:07.856Z,14.30
2018-01-14T00:58:13.373Z,14.70
2018-01-14T00:59:18.899Z,16.00
2018-01-14T01:00:24.428Z,15.60
2018-01-14T01:01:29.954Z,12.70
2018-01-14T01:02:35.483Z,16.40
2018-01-14T01:03:41.003Z,16.00
2018-01-14T01:04:46.540Z,15.60
2018-01-14T01:05:52.064Z,14.30
2018-01-14T01:06:57.588Z,16.80
2018-01-14T01:08:03.119Z,15.00
2018-01-14T01:09:08.668Z,14.40
2018-01-14T01:10:14.172Z,17.80
2018-01-14T01:11:19.708Z,15.40
2018-01-14T01:12:25.233Z,16.60
2018-01-14T01:13:30.762Z,14.20
2018-01-14T01:14:36.284Z,15.50
2018-01-14T01:15:41.813Z,16.30
2018-01-14T01:16:47.336Z,14.00
2018-01-14T01:17:52.867Z,15.90
2018-01-14T01:18:58.397Z,17.30
2018-01-14T01:20:03.919Z,13.60
2018-01-14T01:21:09.449Z,14.50
2018-01-14T01:22:14.981Z,13.80
2018-01-14T01:23:20.505Z,21.40
2018-01-14T01:24:26.028Z,15.40
2018-01-14T01:25:31.557Z,15.40
2018-01-14T01:26:37.085Z,15.90
2018-01-14T01:27:42.617Z,17.70
2018-01-14T01:28:48.141Z,14.50
2018-01-14T01:29:53.670Z,13.50
2018-01-14T01:30:59.193Z,14.70
2018-01-14T01:32:04.725Z,14.40
2018-01-14T01:33:10.254Z,15.70
2018-01-14T01:34:15.775Z,16.30
2018-01-14T01:35:21.305Z,15.60
2018-01-14T01:36:26.834Z,15.70
2018-01-14T01:37:32.366Z,16.90
2018-01-14T01:38:37.883Z,17.00
2018-01-14T01:39:43.415Z,18.80
2018-01-14T01:40:48.942Z,14.30
2018-01-14T01:41:54.468Z,16.00
2018-01-14T01:42:59.994Z,15.30
2018-01-14T01:44:05.523Z,15.10
2018-01-14T01:45:11.055Z,16.40
2018-01-14T01:46:16.586Z,18.70
2018-01-14T01:47:22.106Z,13.90
2018-01-14T01:48:27.636Z,20.60
2018-01-14T01:49:33.164Z,17.00
2018-01-14T01:50:38.691Z,16.40
2018-01-14T01:51:44.213Z,15.10
2018-01-14T01:52:49.747Z,16.10
2018-01-14T01:53:55.273Z,15.20
2018-01-14T01:55:00.801Z,15.50
2018-01-14T01:56:06.331Z,15.70
2018-01-14T01:57:11.865Z,14.40
2018-01-14T01:58:17.386Z,14.90
2018-01-14T01:59:22.915Z,16.90
2018-01-14T02:00:28.439Z,14.00
2018-01-14T02:01:33.970Z,17.60
2018-01-14T02:02:39.505Z,17.60
2018-01-14T02:03:45.020Z,14.30
2018-01-14T02:04:50.546Z,14.70
2018-01-14T02:05:56.073Z,14.50
2018-01-14T02:07:01.606Z,13.70
2018-01-14T02:08:07.130Z,17.20
2018-01-14T02:09:12.658Z,16.70
2018-01-14T02:10:18.190Z,18.00
2018-01-14T02:11:23.714Z,14.90
2018-01-14T02:12:29.242Z,16.40
2018-01-14T02:13:34.771Z,15.20
2018-01-14T02:14:40.293Z,16.60
2018-01-14T02:15:45.828Z,15.30
2018-01-14T02:16:51.354Z,14.70
2018-01-14T02:17:56.875Z,14.30
2018-01-14T02:19:02.414Z,16.50
2018-01-14T02:20:07.939Z,14.20
2018-01-14T02:21:13.464Z,17.20
2018-01-14T02:22:18.990Z,16.40
2018-01-14T02:23:24.514Z,16.10
2018-01-14T02:24:30.046Z,15.60
2018-01-14T02:25:35.579Z,13.70
2018-01-14T02:26:41.096Z,18.70
2018-01-14T02:27:46.629Z,16.00
2018-01-14T02:28:52.155Z,14.50
2018-01-14T02:29:57.681Z,19.00
2018-01-14T02:31:03.211Z,16.40
2018-01-14T02:32:08.738Z,16.80
2018-01-14T02:33:14.263Z,15.80
2018-01-14T02:34:19.799Z,16.30
2018-01-14T02:35:25.322Z,13.00
2018-01-14T02:36:30.848Z,16.70
2018-01-14T02:37:36.378Z,18.50
2018-01-14T02:38:41.905Z,17.30
2018-01-14T02:39:47.431Z,17.60
2018-01-14T02:40:52.963Z,15.40
2018-01-14T02:41:58.482Z,17.70
2018-01-14T02:43:04.054Z,18.20
2018-01-14T02:44:09.543Z,17.80
2018-01-14T02:45:15.066Z,15.60
2018-01-14T02:46:20.596Z,15.60
2018-01-14T02:47:26.120Z,18.40
2018-01-14T02:48:31.648Z,18.00
2018-01-14T02:49:37.179Z,14.00
2018-01-14T02:50:42.704Z,15.60
2018-01-14T02:51:48.232Z,16.60
2018-01-14T02:52:53.759Z,17.40
2018-01-14T02:53:59.288Z,16.20
2018-01-14T02:55:04.818Z,14.20
2018-01-14T02:56:10.339Z,15.50
2018-01-14T02:57:15.870Z,16.70
2018-01-14T02:58:21.397Z,19.00
2018-01-14T02:59:26.926Z,15.60
2018-01-14T03:00:32.452Z,18.20
2018-01-14T03:01:37.977Z,16.90
2018-01-14T03:02:43.506Z,16.40
2018-01-14T03:03:49.033Z,16.00
2018-01-14T03:04:54.558Z,14.00
2018-01-14T03:06:00.133Z,21.20
2018-01-14T03:07:05.615Z,19.50
2018-01-14T03:08:11.140Z,16.60
2018-01-14T03:09:16.668Z,16.70
2018-01-14T03:10:22.197Z,20.80
2018-01-14T03:11:27.728Z,16.70
2018-01-14T03:12:33.253Z,16.30
2018-01-14T03:13:38.780Z,15.20
2018-01-14T03:14:44.308Z,17.50
2018-01-14T03:15:49.838Z,16.80
2018-01-14T03:16:55.361Z,19.60
2018-01-14T03:18:00.893Z,19.30
2018-01-14T03:19:06.414Z,19.30
2018-01-14T03:20:11.944Z,18.90
2018-01-14T03:21:17.471Z,18.50
2018-01-14T03:22:22.998Z,17.30
2018-01-14T03:23:28.528Z,19.70
2018-01-14T03:24:34.056Z,19.00
2018-01-14T03:25:39.584Z,18.70
2018-01-14T03:26:45.111Z,18.50
2018-01-14T03:27:50.640Z,19.30
2018-01-14T03:28:56.171Z,18.00
2018-01-14T03:30:01.690Z,20.00
2018-01-14T03:31:07.219Z,20.80
2018-01-14T03:32:12.748Z,16.50
2018-01-14T03:33:18.279Z,20.30
2018-01-14T03:34:23.805Z,19.80
2018-01-14T03:35:29.334Z,18.50
2018-01-14T03:36:34.854Z,19.90
2018-01-14T03:37:40.382Z,20.50
2018-01-14T03:38:45.917Z,22.80
2018-01-14T03:39:51.438Z,21.00
2018-01-14T03:40:56.965Z,17.90
2018-01-14T03:42:02.493Z,18.00
2018-01-14T03:43:08.022Z,18.80
2018-01-14T03:44:13.554Z,19.80
2018-01-14T03:45:19.076Z,19.40
2018-01-14T03:46:24.604Z,18.30
2018-01-14T03:47:30.151Z,20.10
2018-01-14T03:48:35.659Z,17.30
2018-01-14T03:49:41.187Z,17.60
2018-01-14T03:50:46.710Z,18.70
2018-01-14T03:51:52.245Z,17.40
2018-01-14T03:52:57.767Z,20.80
2018-01-14T03:54:03.301Z,17.20
2018-01-14T03:55:08.826Z,17.60
2018-01-14T03:56:14.350Z,19.00
2018-01-14T03:57:19.878Z,20.40
2018-01-14T03:58:25.405Z,20.80
2018-01-14T03:59:30.932Z,21.70
2018-01-14T04:00:36.467Z,18.00
2018-01-14T04:01:41.990Z,19.10
2018-01-14T04:02:47.525Z,19.30
2018-01-14T04:03:53.045Z,19.10
2018-01-14T04:04:58.573Z,21.10
2018-01-14T04:06:04.100Z,21.20
2018-01-14T04:07:09.629Z,21.10
2018-01-14T04:08:15.154Z,19.60
2018-01-14T04:09:20.686Z,20.30
2018-01-14T04:10:26.230Z,17.60
2018-01-14T04:11:31.744Z,19.20
2018-01-14T04:12:37.272Z,22.30
2018-01-14T04:13:42.797Z,20.00
2018-01-14T04:14:48.329Z,18.70
2018-01-14T04:15:53.907Z,20.00
2018-01-14T04:16:59.381Z,17.40
2018-01-14T04:18:04.920Z,20.90
2018-01-14T04:19:10.429Z,20.20
2018-01-14T04:20:15.957Z,22.70
2018-01-14T04:21:21.488Z,21.20
2018-01-14T04:22:27.023Z,19.20
2018-01-14T04:23:32.543Z,20.60
2018-01-14T04:24:38.076Z,16.30
2018-01-14T04:25:43.597Z,20.00
2018-01-14T04:26:49.132Z,18.70
2018-01-14T04:27:54.652Z,20.30
2018-01-14T04:29:00.184Z,22.90
2018-01-14T04:30:05.710Z,20.20
2018-01-14T04:31:11.240Z,23.40
2018-01-14T04:32:16.762Z,21.70
2018-01-14T04:33:22.290Z,24.10
2018-01-14T04:34:27.823Z,20.40
2018-01-14T04:35:33.352Z,19.90
2018-01-14T04:36:38.874Z,22.70
2018-01-14T04:37:44.402Z,20.60
2018-01-14T04:38:49.939Z,18.30
2018-01-14T04:39:55.515Z,21.70
2018-01-14T04:41:00.984Z,19.90
2018-01-14T04:42:06.518Z,21.50
2018-01-14T04:43:12.040Z,20.60
2018-01-14T04:44:17.578Z,19.10
2018-01-14T04:45:23.101Z,20.40
2018-01-14T04:46:28.620Z,19.90
2018-01-14T04:47:34.158Z,20.80
2018-01-14T04:48:39.688Z,19.90
2018-01-14T04:49:45.204Z,21.40
2018-01-14T04:50:50.732Z,18.70
2018-01-14T04:51:56.261Z,19.00
2018-01-14T04:53:01.787Z,22.60
2018-01-14T04:54:07.322Z,20.20
2018-01-14T04:55:12.843Z,22.70
2018-01-14T04:56:18.380Z,20.60
2018-01-14T04:57:23.903Z,20.50
2018-01-14T04:58:29.429Z,20.30
2018-01-14T04:59:34.958Z,19.50
2018-01-14T05:00:40.483Z,21.70
2018-01-14T05:01:46.015Z,19.60
2018-01-14T05:02:51.538Z,22.00
2018-01-14T05:03:57.062Z,19.50
2018-01-14T05:05:02.597Z,19.60
2018-01-14T05:06:08.129Z,21.40
2018-01-14T05:07:13.654Z,21.10
2018-01-14T05:08:19.179Z,22.20
2018-01-14T05:09:24.709Z,20.90
2018-01-14T05:10:30.232Z,20.70
2018-01-14T05:11:35.759Z,23.40
2018-01-14T05:12:41.292Z,21.40
2018-01-14T05:13:46.814Z,19.40
2018-01-14T05:14:52.409Z,20.30
2018-01-14T05:15:57.873Z,18.70
2018-01-14T05:17:03.397Z,20.20
2018-01-14T05:18:08.930Z,21.80
2018-01-14T05:19:14.451Z,22.30
2018-01-14T05:20:19.984Z,20.90
2018-01-14T05:21:25.508Z,18.60
2018-01-14T05:22:31.044Z,19.10
2018-01-14T05:23:36.563Z,17.20
2018-01-14T05:24:42.097Z,23.40
2018-01-14T05:25:47.627Z,18.50
2018-01-14T05:26:53.147Z,19.90
2018-01-14T05:27:58.677Z,24.00
2018-01-14T05:29:04.209Z,18.30
2018-01-14T05:30:09.738Z,19.90
2018-01-14T05:31:15.257Z,18.00
2018-01-14T05:32:20.800Z,20.80
2018-01-14T05:33:26.313Z,21.50
2018-01-14T05:34:31.845Z,21.20
2018-01-14T05:35:37.372Z,21.00
2018-01-14T05:36:42.922Z,24.50
2018-01-14T05:37:48.434Z,17.60
2018-01-14T05:38:53.957Z,21.60
2018-01-14T05:39:59.481Z,22.00
2018-01-14T05:41:05.015Z,21.70
2018-01-14T05:42:10.542Z,20.00
2018-01-14T05:43:16.067Z,20.50
2018-01-14T05:44:21.595Z,22.10
2018-01-14T05:45:27.122Z,20.30
2018-01-14T05:46:32.646Z,19.20
2018-01-14T05:47:38.176Z,22.10
2018-01-14T05:48:43.700Z,24.90
2018-01-14T05:49:49.232Z,24.90
2018-01-14T05:50:54.761Z,20.40
2018-01-14T05:52:00.288Z,22.50
2018-01-14T05:53:05.818Z,20.30
2018-01-14T05:54:11.341Z,23.20
2018-01-14T05:55:16.866Z,22.50
2018-01-14T05:56:22.394Z,24.90
2018-01-14T05:57:27.930Z,26.10
2018-01-14T05:58:33.450Z,23.90
2018-01-14T05:59:38.978Z,24.30
2018-01-14T06:00:44.503Z,24.50
2018-01-14T06:01:50.042Z,25.60
2018-01-14T06:02:55.561Z,18.40
2018-01-14T06:04:01.103Z,22.70
2018-01-14T06:05:06.614Z,22.60
2018-01-14T06:06:12.141Z,26.40
2018-01-14T06:07:17.669Z,24.60
2018-01-14T06:08:23.197Z,21.70
2018-01-14T06:09:28.723Z,22.50
2018-01-14T06:10:34.253Z,22.70
2018-01-14T06:11:39.779Z,24.80
2018-01-14T06:12:45.312Z,21.30
2018-01-14T06:13:50.834Z,27.90
2018-01-14T06:14:56.364Z,24.10
2018-01-14T06:16:01.890Z,24.10
2018-01-14T06:17:07.418Z,23.80
2018-01-14T06:18:12.946Z,22.30
2018-01-14T06:19:18.474Z,22.60
2018-01-14T06:20:24.003Z,26.70
2018-01-14T06:21:29.526Z,26.00
2018-01-14T06:22:35.053Z,25.30
2018-01-14T06:23:40.583Z,24.90
2018-01-14T06:24:46.110Z,24.50
2018-01-14T06:25:51.642Z,26.60
2018-01-14T06:26:57.160Z,24.70
2018-01-14T06:28:02.694Z,25.00
2018-01-14T06:29:08.217Z,26.50
2018-01-14T06:30:13.743Z,24.80
2018-01-14T06:31:19.275Z,23.30
2018-01-14T06:32:24.797Z,20.50
2018-01-14T06:33:30.329Z,22.80
2018-01-14T06:34:35.854Z,23.70
2018-01-14T06:35:41.383Z,22.70
2018-01-14T06:36:46.929Z,24.80
2018-01-14T06:37:52.436Z,20.80
2018-01-14T06:38:57.969Z,25.70
2018-01-14T06:40:03.490Z,23.20
2018-01-14T06:41:09.024Z,24.10
2018-01-14T06:42:14.547Z,22.40
2018-01-14T06:43:20.080Z,24.50
2018-01-14T06:44:25.601Z,22.70
2018-01-14T06:45:31.124Z,24.90
2018-01-14T06:46:36.648Z,22.70
2018-01-14T06:47:42.183Z,22.40
2018-01-14T06:48:47.711Z,22.20
2018-01-14T06:49:53.240Z,22.50
2018-01-14T06:50:58.758Z,24.10
2018-01-14T06:52:04.290Z,24.10
2018-01-14T06:53:09.816Z,22.30
2018-01-14T06:54:15.335Z,23.60
2018-01-14T06:55:20.864Z,22.80
2018-01-14T06:56:26.391Z,23.90
2018-01-14T06:57:31.919Z,24.80
2018-01-14T06:58:37.443Z,24.30
2018-01-14T06:59:42.978Z,21.20
2018-01-14T07:00:48.514Z,24.50
2018-01-14T07:01:54.030Z,23.60
2018-01-14T07:02:59.558Z,22.00
2018-01-14T07:04:05.080Z,23.70
2018-01-14T07:05:10.611Z,23.90
2018-01-14T07:06:16.191Z,22.20
2018-01-14T07:07:21.662Z,25.00
2018-01-14T07:08:27.192Z,22.70
2018-01-14T07:09:32.720Z,22.30
2018-01-14T07:10:38.245Z,23.50
2018-01-14T07:11:43.773Z,22.60
2018-01-14T07:12:49.383Z,26.80
2018-01-14T07:13:54.824Z,22.30
2018-01-14T07:15:00.355Z,21.30
2018-01-14T07:16:05.878Z,25.30
2018-01-14T07:17:11.404Z,24.90
2018-01-14T07:18:16.945Z,23.30
2018-01-14T07:19:22.464Z,24.80
2018-01-14T07:20:27.987Z,25.10
2018-01-14T07:21:33.516Z,25.30
2018-01-14T07:22:39.041Z,23.70
2018-01-14T07:23:44.694Z,24.50
2018-01-14T07:24:50.097Z,24.50
2018-01-14T07:25:55.622Z,19.70
2018-01-14T07:27:01.153Z,20.40
2018-01-14T07:28:06.675Z,24.30
2018-01-14T07:29:12.209Z,22.50
2018-01-14T07:30:17.736Z,23.70
2018-01-14T07:31:23.257Z,23.00
2018-01-14T07:32:28.792Z,19.80
2018-01-14T07:33:34.308Z,20.20
2018-01-14T07:34:39.842Z,23.60
2018-01-14T07:35:45.366Z,18.60
2018-01-14T07:36:50.896Z,24.50
2018-01-14T07:37:56.425Z,21.30
2018-01-14T07:39:01.945Z,23.30
2018-01-14T07:40:07.476Z,24.70
2018-01-14T07:41:13.000Z,22.80
2018-01-14T07:42:18.525Z,21.50
2018-01-14T07:43:24.062Z,21.90
2018-01-14T07:44:29.583Z,21.10
2018-01-14T07:45:35.113Z,21.60
2018-01-14T07:46:40.633Z,21.60
2018-01-14T07:47:46.195Z,23.30
2018-01-14T07:48:51.686Z,20.90
2018-01-14T07:49:57.213Z,18.10
2018-01-14T07:51:02.743Z,22.50
2018-01-14T07:52:08.265Z,23.30
2018-01-14T07:53:13.802Z,23.30
2018-01-14T07:54:19.319Z,23.80
2018-01-14T07:55:24.853Z,25.60
2018-01-14T07:56:30.371Z,21.70
2018-01-14T07:57:35.905Z,20.90
2018-01-14T07:58:41.435Z,19.30
2018-01-14T07:59:46.969Z,19.40
2018-01-14T08:00:52.486Z,21.50
2018-01-14T08:01:58.012Z,20.50
2018-01-14T08:03:03.533Z,21.70
2018-01-14T08:04:09.059Z,22.30
2018-01-14T08:05:14.590Z,21.60
2018-01-14T08:06:20.117Z,21.50
2018-01-14T08:07:25.644Z,22.60
2018-01-14T08:08:31.171Z,23.50
2018-01-14T08:09:36.692Z,27.40
2018-01-14T08:10:42.222Z,25.40
2018-01-14T08:11:47.750Z,25.20
2018-01-14T08:12:53.277Z,21.80
2018-01-14T08:13:58.808Z,20.60
2018-01-14T08:15:04.330Z,19.70
2018-01-14T08:16:09.861Z,20.40
2018-01-14T08:17:15.382Z,23.60
2018-01-14T08:18:20.908Z,22.50
2018-01-14T08:19:26.441Z,21.80
2018-01-14T08:20:31.959Z,19.50
2018-01-14T08:21:37.490Z,22.40
2018-01-14T08:22:43.014Z,24.90
2018-01-14T08:23:48.549Z,19.20
2018-01-14T08:24:54.068Z,23.30
2018-01-14T08:25:59.600Z,20.20
2018-01-14T08:27:05.121Z,24.60
2018-01-14T08:28:10.657Z,25.70
2018-01-14T08:29:16.175Z,21.30
2018-01-14T08:30:21.701Z,20.70
2018-01-14T08:31:27.231Z,23.10
2018-01-14T08:32:32.753Z,24.70
2018-01-14T08:33:38.283Z,24.30
2018-01-14T08:34:43.811Z,23.90
2018-01-14T08:35:49.342Z,23.50
2018-01-14T08:36:54.861Z,20.50
2018-01-14T08:38:00.392Z,22.90
2018-01-14T08:39:05.922Z,26.80
2018-01-14T08:40:11.440Z,18.10
2018-01-14T08:41:16.970Z,24.30
2018-01-14T08:42:22.501Z,20.60
2018-01-14T08:43:28.025Z,22.60
2018-01-14T08:44:33.548Z,19.60
2018-01-14T08:45:39.078Z,22.60
2018-01-14T08:46:44.600Z,20.70
2018-01-14T08:47:50.127Z,19.50
2018-01-14T08:48:55.661Z,19.10
2018-01-14T08:50:01.189Z,25.60
2018-01-14T08:51:06.709Z,19.00
2018-01-14T08:52:12.244Z,23.20
2018-01-14T08:53:17.759Z,25.30
2018-01-14T08:54:23.295Z,24.00
2018-01-14T08:55:28.822Z,23.80
2018-01-14T08:56:34.341Z,20.10
2018-01-14T08:57:39.872Z,22.70
2018-01-14T08:58:45.401Z,21.80
2018-01-14T08:59:50.925Z,23.30
2018-01-14T09:00:56.452Z,18.80
2018-01-14T09:02:01.981Z,22.60
2018-01-14T09:03:07.504Z,23.30
2018-01-14T09:04:13.035Z,20.50
2018-01-14T09:05:18.563Z,24.70
2018-01-14T09:06:24.087Z,20.90
2018-01-14T09:07:29.616Z,23.00
2018-01-14T09:08:35.146Z,26.10
2018-01-14T09:09:40.680Z,23.30
2018-01-14T09:10:46.193Z,20.20
2018-01-14T09:11:51.724Z,26.20
2018-01-14T09:12:57.252Z,23.50
2018-01-14T09:14:02.776Z,18.90
2018-01-14T09:15:08.305Z,24.90
2018-01-14T09:16:13.829Z,21.60
2018-01-14T09:17:19.361Z,18.40
2018-01-14T09:18:24.883Z,20.70
2018-01-14T09:19:30.410Z,21.90
2018-01-14T09:20:35.941Z,20.90
2018-01-14T09:21:41.466Z,19.70
2018-01-14T09:22:46.992Z,22.70
2018-01-14T09:23:52.531Z,21.70
2018-01-14T09:24:58.049Z,22.20
2018-01-14T09:26:03.576Z,23.40
2018-01-14T09:27:09.108Z,24.50
2018-01-14T09:28:14.635Z,23.00
2018-01-14T09:29:20.154Z,20.40
2018-01-14T09:30:25.683Z,25.30
2018-01-14T09:31:31.211Z,19.70
2018-01-14T09:32:36.743Z,21.10
2018-01-14T09:33:42.264Z,22.30
2018-01-14T09:34:47.793Z,22.00
2018-01-14T09:35:53.322Z,21.60
2018-01-14T09:36:58.870Z,21.10
2018-01-14T09:38:04.382Z,18.40
2018-01-14T09:39:09.904Z,21.20
2018-01-14T09:40:15.435Z,22.60
2018-01-14T09:41:20.956Z,20.80
2018-01-14T09:42:26.486Z,21.10
2018-01-14T09:43:32.014Z,20.30
2018-01-14T09:44:37.542Z,21.50
2018-01-14T09:45:43.074Z,25.90
2018-01-14T09:46:48.593Z,21.90
2018-01-14T09:47:54.158Z,22.40
2018-01-14T09:48:59.651Z,23.30
2018-01-14T09:50:05.178Z,19.10
2018-01-14T09:51:10.718Z,22.40
2018-01-14T09:52:16.234Z,21.80
2018-01-14T09:53:21.756Z,22.00
2018-01-14T09:54:27.287Z,19.20
2018-01-14T09:55:32.817Z,22.10
2018-01-14T09:56:38.367Z,23.50
2018-01-14T09:57:43.880Z,23.30
2018-01-14T09:58:49.396Z,26.30
2018-01-14T09:59:54.925Z,22.30
2018-01-14T10:01:00.467Z,23.20
2018-01-14T10:02:05.987Z,21.40
2018-01-14T10:03:11.505Z,23.60
2018-01-14T10:04:17.034Z,21.40
2018-01-14T10:05:22.562Z,21.60
2018-01-14T10:06:28.093Z,21.00
2018-01-14T10:07:33.620Z,23.10
2018-01-14T10:08:39.156Z,23.80
2018-01-14T10:09:44.674Z,22.00
2018-01-14T10:10:50.219Z,22.40
2018-01-14T10:11:55.726Z,24.70
2018-01-14T10:13:01.255Z,21.10
2018-01-14T10:14:06.789Z,22.60
2018-01-14T10:15:12.313Z,31.20
2018-01-14T10:16:17.840Z,21.90
2018-01-14T10:17:23.370Z,22.10
2018-01-14T10:18:28.896Z,24.90
2018-01-14T10:19:34.430Z,24.90
2018-01-14T10:20:39.980Z,21.90
2018-01-14T10:21:45.478Z,23.20
2018-01-14T10:22:51.001Z,22.40
2018-01-14T10:23:56.601Z,20.40
2018-01-14T10:25:02.066Z,18.60
2018-01-14T10:26:07.595Z,21.00
2018-01-14T10:27:13.116Z,24.90
2018-01-14T10:28:18.641Z,22.00
2018-01-14T10:29:24.173Z,20.20
2018-01-14T10:30:29.697Z,22.60
2018-01-14T10:31:35.227Z,20.70
2018-01-14T10:32:40.759Z,21.60
2018-01-14T10:33:46.286Z,22.50
2018-01-14T10:34:51.818Z,22.20
2018-01-14T10:35:57.337Z,21.40
2018-01-14T10:37:02.863Z,25.40
2018-01-14T10:38:08.408Z,24.60
2018-01-14T10:39:13.925Z,20.50
2018-01-14T10:40:19.454Z,20.70
2018-01-14T10:41:24.980Z,25.70
2018-01-14T10:42:30.509Z,22.40
2018-01-14T10:43:36.099Z,27.30
2018-01-14T10:44:41.566Z,24.00
2018-01-14T10:45:47.087Z,26.80
2018-01-14T10:46:52.614Z,24.30
2018-01-14T10:47:58.144Z,24.20
2018-01-14T10:49:03.678Z,23.10
2018-01-14T10:50:09.202Z,20.30
2018-01-14T10:51:14.726Z,21.70
2018-01-14T10:52:20.254Z,25.50
2018-01-14T10:53:25.789Z,21.10
2018-01-14T10:54:31.317Z,22.20
2018-01-14T10:55:36.839Z,25.50
2018-01-14T10:56:42.371Z,24.00
2018-01-14T10:57:47.896Z,24.60
2018-01-14T10:58:53.421Z,23.60
2018-01-14T10:59:58.951Z,23.00
2018-01-14T11:01:04.536Z,25.00
2018-01-14T11:02:10.009Z,26.80
2018-01-14T11:03:15.537Z,25.10
2018-01-14T11:04:21.071Z,19.60
2018-01-14T11:05:26.601Z,26.20
2018-01-14T11:06:32.130Z,20.20
2018-01-14T11:07:37.654Z,26.50
2018-01-14T11:08:43.187Z,22.80
2018-01-14T11:09:48.707Z,24.40
2018-01-14T11:10:54.241Z,22.20
2018-01-14T11:11:59.773Z,21.70
2018-01-14T11:13:05.295Z,26.20
2018-01-14T11:14:10.827Z,24.00
2018-01-14T11:15:16.348Z,25.80
2018-01-14T11:16:21.895Z,25.20
2018-01-14T11:17:27.406Z,25.20
2018-01-14T11:18:32.942Z,22.40
2018-01-14T11:19:38.471Z,29.40
2018-01-14T11:20:43.991Z,24.80
2018-01-14T11:21:49.516Z,23.60
2018-01-14T11:22:55.059Z,21.10
2018-01-14T11:24:00.582Z,26.90
2018-01-14T11:25:06.108Z,21.90
2018-01-14T11:26:11.647Z,24.00
2018-01-14T11:27:17.163Z,26.00
2018-01-14T11:28:22.690Z,23.20
2018-01-14T11:29:28.214Z,23.70
2018-01-14T11:30:33.754Z,23.60
2018-01-14T11:31:39.278Z,22.00
2018-01-14T11:32:44.802Z,24.60
2018-01-14T11:33:50.343Z,23.70
2018-01-14T11:34:55.864Z,21.00
2018-01-14T11:36:01.391Z,19.70
2018-01-14T11:37:06.928Z,22.10
2018-01-14T11:38:12.457Z,24.00
2018-01-14T11:39:17.977Z,21.00
2018-01-14T11:40:23.529Z,23.20
2018-01-14T11:41:29.032Z,26.20
2018-01-14T11:42:34.563Z,25.00
2018-01-14T11:43:40.094Z,26.70
2018-01-14T11:44:45.618Z,24.10
2018-01-14T11:45:51.150Z,24.10
2018-01-14T11:46:56.681Z,22.10
2018-01-14T11:48:02.208Z,21.00
2018-01-14T11:49:07.737Z,22.40
2018-01-14T11:50:13.261Z,22.80
2018-01-14T11:51:18.786Z,23.10
2018-01-14T11:52:24.319Z,20.90
2018-01-14T11:53:29.859Z,24.10
2018-01-14T11:54:35.376Z,22.80
2018-01-14T11:55:40.915Z,25.10
2018-01-14T11:56:46.441Z,23.10
2018-01-14T11:57:51.963Z,24.50
2018-01-14T11:58:57.490Z,25.00
2018-01-14T12:00:03.020Z,26.10
2018-01-14T12:01:08.567Z,18.50
2018-01-14T12:02:14.076Z,22.90
2018-01-14T12:03:19.604Z,23.30
2018-01-14T12:04:25.133Z,23.80
2018-01-14T12:05:30.688Z,27.60
2018-01-14T12:06:36.195Z,24.60
2018-01-14T12:07:41.723Z,21.00
2018-01-14T12:08:47.249Z,22.50
2018-01-14T12:09:52.801Z,27.10
2018-01-14T12:10:58.309Z,21.80
2018-01-14T12:12:03.843Z,24.20
2018-01-14T12:13:09.362Z,22.30
2018-01-14T12:14:14.896Z,23.10
2018-01-14T12:15:20.427Z,26.40
2018-01-14T12:16:25.956Z,22.30
2018-01-14T12:17:31.479Z,24.90
2018-01-14T12:18:37.007Z,22.50
2018-01-14T12:19:42.538Z,25.20
2018-01-14T12:20:48.082Z,24.20
2018-01-14T12:21:53.598Z,24.70
2018-01-14T12:22:59.128Z,23.60
2018-01-14T12:24:04.650Z,24.20
2018-01-14T12:25:10.184Z,22.40
2018-01-14T12:26:15.722Z,24.10
2018-01-14T12:27:21.242Z,24.80
2018-01-14T12:28:26.772Z,22.00
2018-01-14T12:29:32.297Z,26.80
2018-01-14T12:30:37.827Z,22.00
2018-01-14T12:31:43.356Z,26.00
2018-01-14T12:32:48.885Z,20.90
2018-01-14T12:33:54.414Z,22.90
2018-01-14T12:34:59.948Z,21.50
2018-01-14T12:36:05.472Z,20.60
2018-01-14T12:37:11.000Z,26.00
2018-01-14T12:38:16.530Z,23.00
2018-01-14T12:39:22.061Z,24.70
2018-01-14T12:40:27.591Z,22.50
2018-01-14T12:41:33.116Z,22.30
2018-01-14T12:42:38.645Z,21.00
2018-01-14T12:43:44.174Z,27.40
2018-01-14T12:44:49.701Z,21.60
2018-01-14T12:45:55.230Z,21.40
2018-01-14T12:47:00.758Z,22.40
2018-01-14T12:48:06.301Z,24.00
2018-01-14T12:49:11.826Z,24.70
2018-01-14T12:50:17.344Z,23.10
2018-01-14T12:51:22.878Z,25.60
2018-01-14T12:52:28.405Z,23.70
2018-01-14T12:53:33.936Z,19.90
2018-01-14T12:54:39.464Z,31.80
2018-01-14T12:55:44.992Z,24.10
2018-01-14T12:56:50.521Z,21.40
2018-01-14T12:57:56.052Z,26.70
2018-01-14T12:59:01.581Z,25.30
2018-01-14T13:00:07.107Z,21.70
2018-01-14T13:01:12.635Z,24.90
2018-01-14T13:02:18.162Z,24.90
2018-01-14T13:03:23.698Z,22.00
2018-01-14T13:04:29.223Z,23.50
2018-01-14T13:05:34.755Z,22.60
2018-01-14T13:06:40.282Z,25.90
2018-01-14T13:07:45.808Z,24.20
2018-01-14T13:08:51.338Z,22.00
2018-01-14T13:09:56.869Z,25.80
2018-01-14T13:11:02.394Z,22.50
2018-01-14T13:12:07.924Z,22.10
2018-01-14T13:13:13.451Z,23.60
2018-01-14T13:14:18.985Z,26.80
2018-01-14T13:15:24.517Z,26.70
2018-01-14T13:16:30.042Z,22.70
2018-01-14T13:17:35.570Z,23.80
2018-01-14T13:18:41.101Z,26.50
2018-01-14T13:19:46.628Z,21.50
2018-01-14T13:20:52.160Z,23.90
2018-01-14T13:21:57.686Z,20.70
2018-01-14T13:23:03.222Z,24.30
2018-01-14T13:24:08.744Z,22.00
2018-01-14T13:25:14.270Z,22.60
2018-01-14T13:26:19.799Z,27.50
2018-01-14T13:27:25.332Z,25.50
2018-01-14T13:28:30.860Z,25.40
2018-01-14T13:29:36.382Z,23.50
2018-01-14T13:30:41.918Z,21.80
2018-01-14T13:31:47.449Z,25.00
2018-01-14T13:32:52.969Z,24.90
2018-01-14T13:33:58.503Z,24.00
2018-01-14T13:35:04.032Z,24.90
2018-01-14T13:36:09.562Z,25.10
2018-01-14T13:37:15.088Z,23.00
2018-01-14T13:38:20.617Z,25.90
2018-01-14T13:39:26.144Z,25.40
2018-01-14T13:40:31.673Z,23.30
2018-01-14T13:41:37.200Z,23.60
2018-01-14T13:42:42.731Z,28.20
2018-01-14T13:43:48.259Z,23.90
2018-01-14T13:44:53.788Z,28.10
2018-01-14T13:45:59.316Z,23.00
2018-01-14T13:47:04.844Z,24.90
2018-01-14T13:48:10.376Z,21.40
2018-01-14T13:49:15.894Z,20.90
2018-01-14T13:50:21.430Z,24.40
2018-01-14T13:51:26.959Z,24.60
2018-01-14T13:52:32.481Z,24.20
2018-01-14T13:53:38.021Z,25.80
2018-01-14T13:54:43.544Z,24.60
2018-01-14T13:55:49.072Z,28.80
2018-01-14T13:56:54.597Z,22.50
2018-01-14T13:58:00.125Z,25.50
2018-01-14T13:59:05.651Z,24.20
2018-01-14T14:00:11.181Z,22.60
2018-01-14T14:01:16.713Z,28.60
2018-01-14T14:02:22.255Z,22.70
2018-01-14T14:03:27.772Z,25.80